• Join FlightAware (Why Join?)
  • Login
  • US Flag GB Flag 
10:36 EST


 

Airport Tracker/Info


-or-


 

Live Flight TrackerFlight Track Log ✈ CTL16 ✈ 15-May-2013 ✈ KHAO - KBKL

Flight Track Log - Related Links

Times and Time Zones

All times are in EDT time to prevent confusion due to time zone crossing. See the CTL16 flight status page for this flight to view local times or setup timezone preferences in your user account.

Time Position Orientation Groundspeed Altitude Reporting Facility
EDT Latitude Longitude Course Direction KTS MPH feet Rate Location/Type
20:58 39.3919 -84.5475 41° Northeast 130 150 1,900  Level Indianapolis Center
20:59 39.4197 -84.5161 41° Northeast 148 170 2,900 900 Climbing Indianapolis Center
21:00 39.4372 -84.4883 51° Northeast 159 183 3,500 720 Climbing Indianapolis Center
21:01 39.4717 -84.4422 46° Northeast 152 175 4,300 720 Climbing Indianapolis Center
21:02 39.5044 -84.3986 46° Northeast 159 183 5,000 660 Climbing Indianapolis Center
21:03 39.5356 -84.3553 47° Northeast 163 188 5,700 540 Climbing Indianapolis Center
21:04 39.5661 -84.3131 47° Northeast 160 184 6,200 480 Climbing Indianapolis Center
21:05 39.5978 -84.2711 46° Northeast 161 185 6,800 300 Climbing Indianapolis Center
21:06 39.6286 -84.2258 49° Northeast 165 190 6,900 60 Climbing Indianapolis Center
21:07 39.6717 -84.1708 45° Northeast 183 211 7,000  Climbing Indianapolis Center
21:08 39.7019 -84.1319 45° Northeast 183 211 7,000 -60 Level Indianapolis Center
21:09 39.7392 -84.0850 44° Northeast 184 212 6,900 -60 Descending Indianapolis Center
21:10 39.7744 -84.0358 47° Northeast 185 213 6,900  Level Indianapolis Center
21:11 39.8117 -83.9889 44° Northeast 185 213 7,000  Climbing Indianapolis Center
21:12 39.8525 -83.9467 38° Northeast 184 212 6,900 -60 Descending Indianapolis Center
21:13 39.8978 -83.9164 27° Northeast 182 209 6,900  Level Indianapolis Center
21:14 39.9425 -83.8872 27° Northeast 180 207 6,900  Level Indianapolis Center
21:15 39.9858 -83.8531 31° Northeast 179 206 6,900  Level Indianapolis Center
21:16 40.0294 -83.8211 29° Northeast 178 205 7,000  Climbing Indianapolis Center
21:17 40.0731 -83.7883 30° Northeast 178 205 6,900 -60 Descending Indianapolis Center
21:18 40.1128 -83.7414 42° Northeast 187 215 6,900  Level Indianapolis Center
21:19 40.1478 -83.6861 50° Northeast 194 223 7,000  Climbing Indianapolis Center
21:20 40.1953 -83.6203 47° Northeast 193 222 7,000  Level Indianapolis Center
21:21 40.2269 -83.5728 49° Northeast 192 221 7,000  Level Indianapolis Center
21:22 40.2658 -83.5169 48° Northeast 193 222 7,000 -60 Level Indianapolis Center
21:23 40.2992 -83.4678 48° Northeast 192 221 6,900  Descending Indianapolis Center
21:24 40.3372 -83.4164 46° Northeast 193 222 7,000  Climbing Indianapolis Center
21:25 40.3744 -83.3633 47° Northeast 194 223 7,000  Level Indianapolis Center
21:26 40.4147 -83.3125 44° Northeast 197 227 7,000  Level Indianapolis Center
21:27 40.4544 -83.2631 43° Northeast 197 227 7,000  Level Indianapolis Center
21:28 40.4939 -83.2097 46° Northeast 198 228 7,000  Level Indianapolis Center
21:29 40.5319 -83.1539 48° Northeast 202 232 7,000  Level Indianapolis Center
21:30 40.5700 -83.1006 47° Northeast 200 230 7,000  Level Indianapolis Center
21:31 40.6100 -83.0486 45° Northeast 199 229 7,000  Level Indianapolis Center
21:32 40.6450 -82.9925 51° Northeast 198 228 7,000  Level Indianapolis Center
21:33 40.6833 -82.9383 47° Northeast 200 230 7,000  Level Indianapolis Center
21:34 40.7203 -82.8819 49° Northeast 201 231 7,000  Level Indianapolis Center
21:35 40.7494 -82.8389 48° Northeast 200 230 7,000  Level Cleveland Center
21:36 40.7622 -82.8200 48° Northeast 200 230 7,000  Level Cleveland Center
21:37 40.8031 -82.7583 49° Northeast 201 231 7,000  Level Cleveland Center
21:38 40.8458 -82.6967 47° Northeast 201 231 7,000  Level Cleveland Center
21:39 40.8825 -82.6428 48° Northeast 202 232 7,000  Level Cleveland Center
21:40 40.9144 -82.5917 50° Northeast 201 231 7,000  Level Cleveland Center
21:40 40.9467 -82.5458 47° Northeast 201 231 7,000  Level Cleveland Center
21:41 40.9850 -82.4892 48° Northeast 201 231 7,000  Level Cleveland Center
21:43 41.0214 -82.4353 48° Northeast 202 232 7,000  Level Cleveland Center
21:44 41.0600 -82.3758 49° Northeast 199 229 7,000  Level Cleveland Center
21:45 41.0961 -82.3272 45° Northeast 200 230 7,000 -420 Level Cleveland Center
21:46 41.1344 -82.2647 51° Northeast 212 244 6,300 -540 Descending Cleveland Center
21:47 41.1731 -82.2053 49° Northeast 217 250 6,000 -180 Descending Cleveland Center
21:48 41.2133 -82.1481 47° Northeast 196 226 6,000  Level Cleveland Center
21:49 41.2433 -82.0825 59° Northeast 194 223 6,000 -60 Level Cleveland Center
21:50 41.2692 -82.0169 62° Northeast 196 226 5,900  Descending Cleveland Center
21:51 41.3036 -81.9486 56° Northeast 194 223 6,000 -240 Climbing Cleveland Center
21:52 41.3397 -81.8775 56° Northeast 209 241 5,400 -660 Descending Cleveland Center
21:53 41.3739 -81.8089 56° Northeast 217 250 4,600 -780 Descending Cleveland Center
21:54 41.4161 -81.7544 44° Northeast 199 229 3,900 -780 Descending Cleveland Center
21:55 41.4583 -81.7108 38° Northeast 181 208 3,100 -900 Descending Cleveland Center
21:56 41.4961 -81.6753 35° Northeast 172 198 2,200 -840 Descending Cleveland Center
21:57 41.5194 -81.6425 46° Northeast 125 144 1,500 -720 Descending Cleveland Center
21:59 41.5167 -81.6667 48° Northeast  Level FlightAware Approximate
22:06 41.5175 -81.6833 48° Northeast  Level Estimated